sensor_id;sensor_type;location;lat;lon;timestamp;P1;durP1;ratioP1;P2;durP2;ratioP2
55423;SDS011;41294;42.666;23.350;2022-07-29T00:00:59;9.70;;;8.77;;
55423;SDS011;41294;42.666;23.350;2022-07-29T00:03:24;9.05;;;8.15;;
55423;SDS011;41294;42.666;23.350;2022-07-29T00:05:50;8.85;;;7.93;;
55423;SDS011;41294;42.666;23.350;2022-07-29T00:08:18;9.02;;;8.23;;
55423;SDS011;41294;42.666;23.350;2022-07-29T00:10:43;8.43;;;7.65;;
55423;SDS011;41294;42.666;23.350;2022-07-29T00:13:09;8.57;;;7.78;;
55423;SDS011;41294;42.666;23.350;2022-07-29T00:15:34;9.55;;;8.05;;
55423;SDS011;41294;42.666;23.350;2022-07-29T00:18:00;7.75;;;7.13;;
55423;SDS011;41294;42.666;23.350;2022-07-29T00:20:25;7.97;;;7.28;;
55423;SDS011;41294;42.666;23.350;2022-07-29T00:22:50;10.25;;;7.88;;
55423;SDS011;41294;42.666;23.350;2022-07-29T00:25:16;8.70;;;7.78;;
55423;SDS011;41294;42.666;23.350;2022-07-29T00:27:42;8.32;;;7.05;;
55423;SDS011;41294;42.666;23.350;2022-07-29T00:30:07;9.00;;;8.00;;
55423;SDS011;41294;42.666;23.350;2022-07-29T00:32:33;8.90;;;8.10;;
55423;SDS011;41294;42.666;23.350;2022-07-29T00:35:00;10.10;;;7.03;;
55423;SDS011;41294;42.666;23.350;2022-07-29T00:37:44;9.23;;;8.20;;
55423;SDS011;41294;42.666;23.350;2022-07-29T00:40:09;9.32;;;8.43;;
55423;SDS011;41294;42.666;23.350;2022-07-29T00:42:41;8.82;;;7.97;;
55423;SDS011;41294;42.666;23.350;2022-07-29T00:45:08;10.38;;;8.43;;
55423;SDS011;41294;42.666;23.350;2022-07-29T00:47:34;9.38;;;8.23;;
55423;SDS011;41294;42.666;23.350;2022-07-29T00:49:59;8.77;;;7.97;;
55423;SDS011;41294;42.666;23.350;2022-07-29T00:52:25;9.07;;;8.10;;
55423;SDS011;41294;42.666;23.350;2022-07-29T00:54:50;9.00;;;8.15;;
55423;SDS011;41294;42.666;23.350;2022-07-29T00:57:16;9.57;;;8.48;;
55423;SDS011;41294;42.666;23.350;2022-07-29T00:59:41;11.45;;;8.25;;
55423;SDS011;41294;42.666;23.350;2022-07-29T01:02:06;9.32;;;8.05;;
55423;SDS011;41294;42.666;23.350;2022-07-29T01:04:32;8.93;;;8.10;;
55423;SDS011;41294;42.666;23.350;2022-07-29T01:06:58;8.73;;;7.82;;
55423;SDS011;41294;42.666;23.350;2022-07-29T01:09:26;8.63;;;7.82;;
55423;SDS011;41294;42.666;23.350;2022-07-29T01:11:52;8.90;;;8.00;;
55423;SDS011;41294;42.666;23.350;2022-07-29T01:14:18;8.68;;;7.88;;
55423;SDS011;41294;42.666;23.350;2022-07-29T01:16:48;10.60;;;8.95;;
55423;SDS011;41294;42.666;23.350;2022-07-29T01:19:29;11.15;;;8.60;;
55423;SDS011;41294;42.666;23.350;2022-07-29T01:22:18;8.88;;;8.05;;
55423;SDS011;41294;42.666;23.350;2022-07-29T01:25:23;9.93;;;8.90;;
55423;SDS011;41294;42.666;23.350;2022-07-29T01:30:32;10.48;;;9.48;;
55423;SDS011;41294;42.666;23.350;2022-07-29T01:33:02;13.30;;;11.13;;
55423;SDS011;41294;42.666;23.350;2022-07-29T01:35:33;12.20;;;11.05;;
55423;SDS011;41294;42.666;23.350;2022-07-29T01:38:10;11.32;;;10.20;;
55423;SDS011;41294;42.666;23.350;2022-07-29T01:40:43;12.35;;;11.05;;
55423;SDS011;41294;42.666;23.350;2022-07-29T01:43:14;12.60;;;11.40;;
55423;SDS011;41294;42.666;23.350;2022-07-29T01:45:46;14.05;;;12.50;;
55423;SDS011;41294;42.666;23.350;2022-07-29T01:48:21;13.38;;;12.07;;
55423;SDS011;41294;42.666;23.350;2022-07-29T01:50:50;15.40;;;13.38;;
55423;SDS011;41294;42.666;23.350;2022-07-29T01:53:34;13.80;;;12.27;;
55423;SDS011;41294;42.666;23.350;2022-07-29T01:56:03;11.57;;;10.38;;
55423;SDS011;41294;42.666;23.350;2022-07-29T01:58:31;13.35;;;11.95;;
55423;SDS011;41294;42.666;23.350;2022-07-29T02:01:00;13.05;;;11.75;;
55423;SDS011;41294;42.666;23.350;2022-07-29T02:03:27;11.95;;;10.75;;
55423;SDS011;41294;42.666;23.350;2022-07-29T02:05:55;12.55;;;10.32;;
55423;SDS011;41294;42.666;23.350;2022-07-29T02:08:22;12.07;;;10.85;;
55423;SDS011;41294;42.666;23.350;2022-07-29T02:10:50;12.82;;;11.02;;
55423;SDS011;41294;42.666;23.350;2022-07-29T02:13:17;13.48;;;10.57;;
55423;SDS011;41294;42.666;23.350;2022-07-29T02:15:46;12.85;;;10.30;;
55423;SDS011;41294;42.666;23.350;2022-07-29T02:18:17;12.23;;;10.68;;
55423;SDS011;41294;42.666;23.350;2022-07-29T02:20:47;14.88;;;10.20;;
55423;SDS011;41294;42.666;23.350;2022-07-29T02:23:14;13.85;;;10.65;;
55423;SDS011;41294;42.666;23.350;2022-07-29T02:25:47;11.77;;;10.57;;
55423;SDS011;41294;42.666;23.350;2022-07-29T02:28:16;11.90;;;10.35;;
55423;SDS011;41294;42.666;23.350;2022-07-29T02:30:42;12.52;;;10.68;;
55423;SDS011;41294;42.666;23.350;2022-07-29T02:33:09;12.02;;;10.18;;
55423;SDS011;41294;42.666;23.350;2022-07-29T02:35:37;12.75;;;10.98;;
55423;SDS011;41294;42.666;23.350;2022-07-29T02:38:05;12.50;;;10.50;;
55423;SDS011;41294;42.666;23.350;2022-07-29T02:40:51;13.98;;;11.30;;
55423;SDS011;41294;42.666;23.350;2022-07-29T02:43:18;14.45;;;9.68;;
55423;SDS011;41294;42.666;23.350;2022-07-29T02:45:45;11.80;;;10.45;;
55423;SDS011;41294;42.666;23.350;2022-07-29T02:48:15;9.77;;;8.75;;
55423;SDS011;41294;42.666;23.350;2022-07-29T02:50:44;9.32;;;8.35;;
55423;SDS011;41294;42.666;23.350;2022-07-29T02:53:17;11.25;;;8.15;;
55423;SDS011;41294;42.666;23.350;2022-07-29T02:58:25;10.93;;;8.32;;
55423;SDS011;41294;42.666;23.350;2022-07-29T03:00:55;11.35;;;7.80;;
55423;SDS011;41294;42.666;23.350;2022-07-29T03:03:24;9.70;;;8.07;;
55423;SDS011;41294;42.666;23.350;2022-07-29T03:05:56;9.00;;;7.47;;
55423;SDS011;41294;42.666;23.350;2022-07-29T03:08:24;11.35;;;7.82;;
55423;SDS011;41294;42.666;23.350;2022-07-29T03:10:51;8.95;;;7.40;;
55423;SDS011;41294;42.666;23.350;2022-07-29T03:13:18;10.57;;;7.72;;
55423;SDS011;41294;42.666;23.350;2022-07-29T03:15:44;14.52;;;8.00;;
55423;SDS011;41294;42.666;23.350;2022-07-29T03:18:11;11.88;;;8.40;;
55423;SDS011;41294;42.666;23.350;2022-07-29T03:20:38;8.20;;;7.40;;
55423;SDS011;41294;42.666;23.350;2022-07-29T03:23:04;9.88;;;8.35;;
55423;SDS011;41294;42.666;23.350;2022-07-29T03:25:29;9.82;;;8.82;;
55423;SDS011;41294;42.666;23.350;2022-07-29T03:27:55;9.02;;;8.18;;
55423;SDS011;41294;42.666;23.350;2022-07-29T03:30:21;11.27;;;9.95;;
55423;SDS011;41294;42.666;23.350;2022-07-29T03:32:47;12.05;;;10.07;;
55423;SDS011;41294;42.666;23.350;2022-07-29T03:35:14;15.48;;;11.73;;
55423;SDS011;41294;42.666;23.350;2022-07-29T03:37:41;16.33;;;12.38;;
55423;SDS011;41294;42.666;23.350;2022-07-29T03:40:07;13.15;;;11.80;;
55423;SDS011;41294;42.666;23.350;2022-07-29T03:42:35;14.88;;;11.82;;
55423;SDS011;41294;42.666;23.350;2022-07-29T03:45:04;12.55;;;11.25;;
55423;SDS011;41294;42.666;23.350;2022-07-29T03:47:32;13.57;;;11.45;;
55423;SDS011;41294;42.666;23.350;2022-07-29T03:50:02;12.40;;;11.10;;
55423;SDS011;41294;42.666;23.350;2022-07-29T03:52:31;10.55;;;9.60;;
55423;SDS011;41294;42.666;23.350;2022-07-29T03:54:57;10.40;;;9.30;;
55423;SDS011;41294;42.666;23.350;2022-07-29T03:57:27;10.10;;;9.10;;
55423;SDS011;41294;42.666;23.350;2022-07-29T03:59:54;14.20;;;9.55;;
55423;SDS011;41294;42.666;23.350;2022-07-29T04:02:20;10.48;;;9.48;;
55423;SDS011;41294;42.666;23.350;2022-07-29T04:04:46;11.55;;;10.35;;
55423;SDS011;41294;42.666;23.350;2022-07-29T04:07:12;13.50;;;11.15;;
55423;SDS011;41294;42.666;23.350;2022-07-29T04:09:38;13.55;;;10.27;;
55423;SDS011;41294;42.666;23.350;2022-07-29T04:12:05;11.40;;;9.77;;
55423;SDS011;41294;42.666;23.350;2022-07-29T04:14:31;10.93;;;9.80;;
55423;SDS011;41294;42.666;23.350;2022-07-29T04:16:58;13.13;;;9.65;;
55423;SDS011;41294;42.666;23.350;2022-07-29T04:19:24;13.55;;;9.45;;
55423;SDS011;41294;42.666;23.350;2022-07-29T04:21:49;12.27;;;9.73;;
55423;SDS011;41294;42.666;23.350;2022-07-29T04:24:15;11.63;;;8.32;;
55423;SDS011;41294;42.666;23.350;2022-07-29T04:26:40;11.75;;;9.10;;
55423;SDS011;41294;42.666;23.350;2022-07-29T04:29:06;11.48;;;8.75;;
55423;SDS011;41294;42.666;23.350;2022-07-29T04:31:31;10.20;;;8.50;;
55423;SDS011;41294;42.666;23.350;2022-07-29T04:33:57;9.95;;;7.82;;
55423;SDS011;41294;42.666;23.350;2022-07-29T04:36:22;9.93;;;7.57;;
55423;SDS011;41294;42.666;23.350;2022-07-29T04:38:48;7.80;;;7.03;;
55423;SDS011;41294;42.666;23.350;2022-07-29T04:41:13;10.85;;;6.90;;
55423;SDS011;41294;42.666;23.350;2022-07-29T04:43:39;7.35;;;6.25;;
55423;SDS011;41294;42.666;23.350;2022-07-29T04:46:05;7.40;;;6.70;;
55423;SDS011;41294;42.666;23.350;2022-07-29T04:48:31;10.45;;;6.25;;
55423;SDS011;41294;42.666;23.350;2022-07-29T04:50:57;9.05;;;6.40;;
55423;SDS011;41294;42.666;23.350;2022-07-29T04:53:23;6.70;;;6.10;;
55423;SDS011;41294;42.666;23.350;2022-07-29T04:55:49;7.55;;;6.60;;
55423;SDS011;41294;42.666;23.350;2022-07-29T04:58:14;7.78;;;6.50;;
55423;SDS011;41294;42.666;23.350;2022-07-29T05:00:40;9.00;;;6.18;;
55423;SDS011;41294;42.666;23.350;2022-07-29T05:03:06;8.68;;;6.80;;
55423;SDS011;41294;42.666;23.350;2022-07-29T05:05:31;8.80;;;6.95;;
55423;SDS011;41294;42.666;23.350;2022-07-29T05:07:57;6.75;;;6.10;;
55423;SDS011;41294;42.666;23.350;2022-07-29T05:10:22;10.30;;;6.78;;
55423;SDS011;41294;42.666;23.350;2022-07-29T05:12:48;8.80;;;6.75;;
55423;SDS011;41294;42.666;23.350;2022-07-29T05:15:13;7.47;;;6.10;;
55423;SDS011;41294;42.666;23.350;2022-07-29T05:17:39;7.18;;;6.47;;
55423;SDS011;41294;42.666;23.350;2022-07-29T05:20:05;11.35;;;6.07;;
55423;SDS011;41294;42.666;23.350;2022-07-29T05:22:31;7.82;;;6.35;;
55423;SDS011;41294;42.666;23.350;2022-07-29T05:24:56;11.43;;;6.80;;
55423;SDS011;41294;42.666;23.350;2022-07-29T05:27:22;11.23;;;6.43;;
55423;SDS011;41294;42.666;23.350;2022-07-29T05:29:47;9.27;;;6.20;;
55423;SDS011;41294;42.666;23.350;2022-07-29T05:32:12;10.77;;;6.75;;
55423;SDS011;41294;42.666;23.350;2022-07-29T05:34:38;8.52;;;5.72;;
55423;SDS011;41294;42.666;23.350;2022-07-29T05:37:05;6.30;;;5.70;;
55423;SDS011;41294;42.666;23.350;2022-07-29T05:39:30;7.47;;;6.32;;
55423;SDS011;41294;42.666;23.350;2022-07-29T05:41:57;9.80;;;6.32;;
55423;SDS011;41294;42.666;23.350;2022-07-29T05:44:22;9.70;;;5.82;;
55423;SDS011;41294;42.666;23.350;2022-07-29T05:46:48;9.18;;;6.55;;
55423;SDS011;41294;42.666;23.350;2022-07-29T05:49:13;8.23;;;6.05;;
55423;SDS011;41294;42.666;23.350;2022-07-29T05:51:39;7.13;;;6.28;;
55423;SDS011;41294;42.666;23.350;2022-07-29T05:54:05;7.15;;;6.32;;
55423;SDS011;41294;42.666;23.350;2022-07-29T05:56:30;7.65;;;6.40;;
55423;SDS011;41294;42.666;23.350;2022-07-29T05:58:55;9.25;;;6.93;;
55423;SDS011;41294;42.666;23.350;2022-07-29T06:01:21;7.82;;;6.82;;
55423;SDS011;41294;42.666;23.350;2022-07-29T06:03:46;9.35;;;7.03;;
55423;SDS011;41294;42.666;23.350;2022-07-29T06:06:12;18.35;;;6.63;;
55423;SDS011;41294;42.666;23.350;2022-07-29T06:08:37;9.50;;;6.65;;
55423;SDS011;41294;42.666;23.350;2022-07-29T06:11:03;8.27;;;5.82;;
55423;SDS011;41294;42.666;23.350;2022-07-29T06:13:29;8.57;;;5.93;;
55423;SDS011;41294;42.666;23.350;2022-07-29T06:15:55;8.95;;;6.90;;
55423;SDS011;41294;42.666;23.350;2022-07-29T06:18:21;7.30;;;5.30;;
55423;SDS011;41294;42.666;23.350;2022-07-29T06:20:49;10.32;;;6.40;;
55423;SDS011;41294;42.666;23.350;2022-07-29T06:23:16;7.30;;;5.35;;
55423;SDS011;41294;42.666;23.350;2022-07-29T06:25:42;8.40;;;5.30;;
55423;SDS011;41294;42.666;23.350;2022-07-29T06:28:07;8.52;;;5.70;;
55423;SDS011;41294;42.666;23.350;2022-07-29T06:30:33;9.20;;;6.18;;
55423;SDS011;41294;42.666;23.350;2022-07-29T06:32:58;9.70;;;6.38;;
55423;SDS011;41294;42.666;23.350;2022-07-29T06:35:25;10.88;;;6.63;;
55423;SDS011;41294;42.666;23.350;2022-07-29T06:37:50;7.68;;;5.40;;
55423;SDS011;41294;42.666;23.350;2022-07-29T06:40:16;8.60;;;6.15;;
55423;SDS011;41294;42.666;23.350;2022-07-29T06:43:00;12.43;;;7.50;;
55423;SDS011;41294;42.666;23.350;2022-07-29T06:45:25;7.95;;;6.70;;
55423;SDS011;41294;42.666;23.350;2022-07-29T06:47:51;7.82;;;6.80;;
55423;SDS011;41294;42.666;23.350;2022-07-29T06:50:17;9.90;;;6.07;;
55423;SDS011;41294;42.666;23.350;2022-07-29T06:52:42;6.85;;;5.53;;
55423;SDS011;41294;42.666;23.350;2022-07-29T06:55:08;7.80;;;6.07;;
55423;SDS011;41294;42.666;23.350;2022-07-29T06:57:34;9.13;;;7.00;;
55423;SDS011;41294;42.666;23.350;2022-07-29T06:59:59;7.38;;;5.75;;
55423;SDS011;41294;42.666;23.350;2022-07-29T07:02:25;6.65;;;6.05;;
55423;SDS011;41294;42.666;23.350;2022-07-29T07:04:50;6.13;;;5.07;;
55423;SDS011;41294;42.666;23.350;2022-07-29T07:07:16;8.25;;;5.70;;
55423;SDS011;41294;42.666;23.350;2022-07-29T07:09:41;4.90;;;4.50;;
55423;SDS011;41294;42.666;23.350;2022-07-29T07:12:07;6.05;;;4.63;;
55423;SDS011;41294;42.666;23.350;2022-07-29T07:14:33;7.25;;;5.30;;
55423;SDS011;41294;42.666;23.350;2022-07-29T07:16:58;10.45;;;5.15;;
55423;SDS011;41294;42.666;23.350;2022-07-29T07:19:25;8.85;;;5.30;;
55423;SDS011;41294;42.666;23.350;2022-07-29T07:21:52;6.05;;;5.18;;
55423;SDS011;41294;42.666;23.350;2022-07-29T07:24:18;5.22;;;4.63;;
55423;SDS011;41294;42.666;23.350;2022-07-29T07:26:44;5.15;;;4.65;;
55423;SDS011;41294;42.666;23.350;2022-07-29T07:29:11;8.50;;;4.60;;
55423;SDS011;41294;42.666;23.350;2022-07-29T07:31:37;9.40;;;4.70;;
55423;SDS011;41294;42.666;23.350;2022-07-29T07:34:03;5.65;;;4.38;;
55423;SDS011;41294;42.666;23.350;2022-07-29T07:36:28;6.97;;;5.75;;
55423;SDS011;41294;42.666;23.350;2022-07-29T07:38:54;9.15;;;7.20;;
55423;SDS011;41294;42.666;23.350;2022-07-29T07:41:20;6.93;;;5.50;;
55423;SDS011;41294;42.666;23.350;2022-07-29T07:43:45;9.15;;;5.53;;
55423;SDS011;41294;42.666;23.350;2022-07-29T07:46:11;8.43;;;6.40;;
55423;SDS011;41294;42.666;23.350;2022-07-29T07:48:37;6.82;;;4.68;;
55423;SDS011;41294;42.666;23.350;2022-07-29T07:51:02;5.40;;;4.32;;
55423;SDS011;41294;42.666;23.350;2022-07-29T07:53:28;4.88;;;4.20;;
55423;SDS011;41294;42.666;23.350;2022-07-29T07:55:54;7.05;;;4.20;;
55423;SDS011;41294;42.666;23.350;2022-07-29T07:58:20;5.32;;;3.90;;
55423;SDS011;41294;42.666;23.350;2022-07-29T08:00:46;7.85;;;4.78;;
55423;SDS011;41294;42.666;23.350;2022-07-29T08:03:13;5.43;;;4.70;;
55423;SDS011;41294;42.666;23.350;2022-07-29T08:05:41;4.55;;;4.15;;
55423;SDS011;41294;42.666;23.350;2022-07-29T08:08:07;4.70;;;4.25;;
55423;SDS011;41294;42.666;23.350;2022-07-29T08:10:33;8.05;;;4.45;;
55423;SDS011;41294;42.666;23.350;2022-07-29T08:13:17;4.97;;;3.80;;
55423;SDS011;41294;42.666;23.350;2022-07-29T08:15:43;5.40;;;3.67;;
55423;SDS011;41294;42.666;23.350;2022-07-29T08:18:10;3.90;;;3.50;;
55423;SDS011;41294;42.666;23.350;2022-07-29T08:20:39;6.55;;;4.13;;
55423;SDS011;41294;42.666;23.350;2022-07-29T08:23:05;4.82;;;3.88;;
55423;SDS011;41294;42.666;23.350;2022-07-29T08:25:34;4.32;;;3.60;;
55423;SDS011;41294;42.666;23.350;2022-07-29T08:28:02;3.50;;;3.20;;
55423;SDS011;41294;42.666;23.350;2022-07-29T08:30:27;5.13;;;3.17;;
55423;SDS011;41294;42.666;23.350;2022-07-29T08:32:53;4.35;;;3.58;;
55423;SDS011;41294;42.666;23.350;2022-07-29T08:35:19;4.53;;;3.25;;
55423;SDS011;41294;42.666;23.350;2022-07-29T08:37:45;5.85;;;4.18;;
55423;SDS011;41294;42.666;23.350;2022-07-29T08:40:11;4.13;;;3.72;;
55423;SDS011;41294;42.666;23.350;2022-07-29T08:42:37;4.82;;;3.58;;
55423;SDS011;41294;42.666;23.350;2022-07-29T08:45:03;5.22;;;3.25;;
55423;SDS011;41294;42.666;23.350;2022-07-29T08:47:29;5.10;;;3.38;;
55423;SDS011;41294;42.666;23.350;2022-07-29T08:49:55;3.08;;;2.78;;
55423;SDS011;41294;42.666;23.350;2022-07-29T08:52:20;6.22;;;3.42;;
55423;SDS011;41294;42.666;23.350;2022-07-29T08:54:49;3.45;;;3.08;;
55423;SDS011;41294;42.666;23.350;2022-07-29T08:57:15;3.78;;;3.03;;
55423;SDS011;41294;42.666;23.350;2022-07-29T08:59:42;3.95;;;2.65;;
55423;SDS011;41294;42.666;23.350;2022-07-29T09:02:12;3.20;;;2.90;;
55423;SDS011;41294;42.666;23.350;2022-07-29T09:04:52;3.83;;;3.05;;
55423;SDS011;41294;42.666;23.350;2022-07-29T09:07:18;3.22;;;2.90;;
55423;SDS011;41294;42.666;23.350;2022-07-29T09:09:43;6.07;;;3.00;;
55423;SDS011;41294;42.666;23.350;2022-07-29T09:12:11;3.17;;;2.78;;
55423;SDS011;41294;42.666;23.350;2022-07-29T09:14:38;4.43;;;4.03;;
55423;SDS011;41294;42.666;23.350;2022-07-29T09:17:04;3.75;;;3.17;;
55423;SDS011;41294;42.666;23.350;2022-07-29T09:19:30;5.03;;;3.13;;
55423;SDS011;41294;42.666;23.350;2022-07-29T09:21:59;4.32;;;3.70;;
55423;SDS011;41294;42.666;23.350;2022-07-29T09:24:26;4.15;;;3.15;;
55423;SDS011;41294;42.666;23.350;2022-07-29T09:29:46;7.85;;;4.32;;
55423;SDS011;41294;42.666;23.350;2022-07-29T09:32:12;5.30;;;3.67;;
55423;SDS011;41294;42.666;23.350;2022-07-29T09:34:38;6.95;;;4.07;;
55423;SDS011;41294;42.666;23.350;2022-07-29T09:37:03;4.63;;;3.70;;
55423;SDS011;41294;42.666;23.350;2022-07-29T09:39:31;5.53;;;3.60;;
55423;SDS011;41294;42.666;23.350;2022-07-29T09:42:00;4.10;;;3.70;;
55423;SDS011;41294;42.666;23.350;2022-07-29T09:44:40;4.78;;;3.95;;
55423;SDS011;41294;42.666;23.350;2022-07-29T09:47:08;6.07;;;4.07;;
55423;SDS011;41294;42.666;23.350;2022-07-29T09:49:34;4.05;;;3.70;;
55423;SDS011;41294;42.666;23.350;2022-07-29T09:52:14;4.72;;;4.20;;
55423;SDS011;41294;42.666;23.350;2022-07-29T09:54:40;4.45;;;3.78;;
55423;SDS011;41294;42.666;23.350;2022-07-29T09:57:08;3.72;;;3.40;;
55423;SDS011;41294;42.666;23.350;2022-07-29T09:59:37;5.35;;;3.63;;
55423;SDS011;41294;42.666;23.350;2022-07-29T10:02:13;4.43;;;4.03;;
55423;SDS011;41294;42.666;23.350;2022-07-29T10:04:40;4.28;;;3.90;;
55423;SDS011;41294;42.666;23.350;2022-07-29T10:07:07;5.05;;;3.75;;
55423;SDS011;41294;42.666;23.350;2022-07-29T10:09:32;4.05;;;3.70;;
55423;SDS011;41294;42.666;23.350;2022-07-29T10:12:03;5.30;;;3.80;;
55423;SDS011;41294;42.666;23.350;2022-07-29T10:14:38;3.60;;;3.30;;
55423;SDS011;41294;42.666;23.350;2022-07-29T10:17:04;5.03;;;3.42;;
55423;SDS011;41294;42.666;23.350;2022-07-29T10:19:31;3.78;;;3.47;;
55423;SDS011;41294;42.666;23.350;2022-07-29T10:21:58;7.05;;;3.40;;
55423;SDS011;41294;42.666;23.350;2022-07-29T10:24:26;3.80;;;3.50;;
55423;SDS011;41294;42.666;23.350;2022-07-29T10:26:58;8.93;;;3.75;;
55423;SDS011;41294;42.666;23.350;2022-07-29T10:29:26;3.95;;;3.65;;
55423;SDS011;41294;42.666;23.350;2022-07-29T10:43:32;6.57;;;3.22;;
55423;SDS011;41294;42.666;23.350;2022-07-29T10:46:01;5.65;;;3.70;;
55423;SDS011;41294;42.666;23.350;2022-07-29T10:48:28;3.33;;;3.08;;
55423;SDS011;41294;42.666;23.350;2022-07-29T10:50:55;4.03;;;3.60;;
55423;SDS011;41294;42.666;23.350;2022-07-29T10:56:26;3.88;;;3.40;;
55423;SDS011;41294;42.666;23.350;2022-07-29T11:01:46;5.57;;;4.00;;
55423;SDS011;41294;42.666;23.350;2022-07-29T11:04:12;4.40;;;3.30;;
55423;SDS011;41294;42.666;23.350;2022-07-29T11:09:27;3.35;;;3.00;;
55423;SDS011;41294;42.666;23.350;2022-07-29T11:11:55;4.10;;;3.75;;
55423;SDS011;41294;42.666;23.350;2022-07-29T11:15:09;4.78;;;3.15;;
55423;SDS011;41294;42.666;23.350;2022-07-29T11:17:26;4.10;;;3.28;;
55423;SDS011;41294;42.666;23.350;2022-07-29T11:20:30;9.23;;;3.60;;
55423;SDS011;41294;42.666;23.350;2022-07-29T11:23:01;4.05;;;3.45;;
55423;SDS011;41294;42.666;23.350;2022-07-29T11:31:19;3.78;;;3.47;;
55423;SDS011;41294;42.666;23.350;2022-07-29T11:34:18;3.85;;;3.28;;
55423;SDS011;41294;42.666;23.350;2022-07-29T11:39:31;4.85;;;4.22;;
55423;SDS011;41294;42.666;23.350;2022-07-29T11:44:57;4.95;;;3.70;;
55423;SDS011;41294;42.666;23.350;2022-07-29T11:47:25;4.20;;;3.47;;
55423;SDS011;41294;42.666;23.350;2022-07-29T11:49:52;7.95;;;4.70;;
55423;SDS011;41294;42.666;23.350;2022-07-29T11:52:19;5.10;;;3.97;;
55423;SDS011;41294;42.666;23.350;2022-07-29T11:54:47;4.20;;;3.80;;
55423;SDS011;41294;42.666;23.350;2022-07-29T11:57:14;6.13;;;4.35;;
55423;SDS011;41294;42.666;23.350;2022-07-29T11:59:42;4.28;;;3.78;;
55423;SDS011;41294;42.666;23.350;2022-07-29T12:02:09;4.00;;;3.60;;
55423;SDS011;41294;42.666;23.350;2022-07-29T12:04:51;3.97;;;3.67;;
55423;SDS011;41294;42.666;23.350;2022-07-29T12:07:27;5.60;;;3.88;;
55423;SDS011;41294;42.666;23.350;2022-07-29T12:09:57;6.45;;;4.10;;
55423;SDS011;41294;42.666;23.350;2022-07-29T12:12:23;5.30;;;4.57;;
55423;SDS011;41294;42.666;23.350;2022-07-29T12:14:48;4.40;;;4.00;;
55423;SDS011;41294;42.666;23.350;2022-07-29T12:19:55;5.60;;;4.20;;
55423;SDS011;41294;42.666;23.350;2022-07-29T12:24:50;4.38;;;3.97;;
55423;SDS011;41294;42.666;23.350;2022-07-29T12:27:16;5.43;;;4.70;;
55423;SDS011;41294;42.666;23.350;2022-07-29T12:29:43;5.20;;;4.80;;
55423;SDS011;41294;42.666;23.350;2022-07-29T12:32:08;4.75;;;4.35;;
55423;SDS011;41294;42.666;23.350;2022-07-29T12:34:34;4.60;;;4.18;;
55423;SDS011;41294;42.666;23.350;2022-07-29T12:36:59;6.50;;;4.40;;
55423;SDS011;41294;42.666;23.350;2022-07-29T12:39:26;5.07;;;4.60;;
55423;SDS011;41294;42.666;23.350;2022-07-29T12:41:53;5.45;;;4.70;;
55423;SDS011;41294;42.666;23.350;2022-07-29T12:44:18;7.25;;;4.40;;
55423;SDS011;41294;42.666;23.350;2022-07-29T12:46:44;5.43;;;4.93;;
55423;SDS011;41294;42.666;23.350;2022-07-29T12:49:15;6.45;;;4.68;;
55423;SDS011;41294;42.666;23.350;2022-07-29T12:51:47;5.57;;;4.95;;
55423;SDS011;41294;42.666;23.350;2022-07-29T12:54:13;5.85;;;5.00;;
55423;SDS011;41294;42.666;23.350;2022-07-29T12:56:41;6.20;;;4.40;;
55423;SDS011;41294;42.666;23.350;2022-07-29T12:59:14;5.20;;;4.70;;
55423;SDS011;41294;42.666;23.350;2022-07-29T13:01:41;5.30;;;4.40;;
55423;SDS011;41294;42.666;23.350;2022-07-29T13:04:07;5.13;;;4.70;;
55423;SDS011;41294;42.666;23.350;2022-07-29T13:06:35;5.00;;;4.55;;
55423;SDS011;41294;42.666;23.350;2022-07-29T13:09:17;6.55;;;4.65;;
55423;SDS011;41294;42.666;23.350;2022-07-29T13:11:45;4.78;;;4.38;;
55423;SDS011;41294;42.666;23.350;2022-07-29T13:14:14;4.93;;;4.53;;
55423;SDS011;41294;42.666;23.350;2022-07-29T13:21:58;4.55;;;4.13;;
55423;SDS011;41294;42.666;23.350;2022-07-29T13:24:23;4.40;;;4.05;;
55423;SDS011;41294;42.666;23.350;2022-07-29T13:26:50;6.32;;;4.40;;
55423;SDS011;41294;42.666;23.350;2022-07-29T13:29:16;5.85;;;4.70;;
55423;SDS011;41294;42.666;23.350;2022-07-29T13:31:42;7.38;;;5.03;;
55423;SDS011;41294;42.666;23.350;2022-07-29T13:34:08;5.78;;;4.75;;
55423;SDS011;41294;42.666;23.350;2022-07-29T13:36:34;5.32;;;4.80;;
55423;SDS011;41294;42.666;23.350;2022-07-29T13:38:59;5.05;;;4.63;;
55423;SDS011;41294;42.666;23.350;2022-07-29T13:41:27;4.95;;;4.50;;
55423;SDS011;41294;42.666;23.350;2022-07-29T13:43:52;6.18;;;4.63;;
55423;SDS011;41294;42.666;23.350;2022-07-29T13:46:18;5.50;;;4.53;;
55423;SDS011;41294;42.666;23.350;2022-07-29T13:48:43;7.60;;;4.57;;
55423;SDS011;41294;42.666;23.350;2022-07-29T13:51:08;5.22;;;4.13;;
55423;SDS011;41294;42.666;23.350;2022-07-29T13:53:34;7.97;;;4.40;;
55423;SDS011;41294;42.666;23.350;2022-07-29T13:55:59;6.05;;;4.40;;
55423;SDS011;41294;42.666;23.350;2022-07-29T13:58:25;4.78;;;4.38;;
55423;SDS011;41294;42.666;23.350;2022-07-29T14:00:50;6.00;;;4.65;;
55423;SDS011;41294;42.666;23.350;2022-07-29T14:03:16;5.35;;;4.80;;
55423;SDS011;41294;42.666;23.350;2022-07-29T14:05:41;4.43;;;4.13;;
55423;SDS011;41294;42.666;23.350;2022-07-29T14:08:07;4.97;;;4.47;;
55423;SDS011;41294;42.666;23.350;2022-07-29T14:10:32;4.65;;;4.32;;
55423;SDS011;41294;42.666;23.350;2022-07-29T14:12:58;6.10;;;4.63;;
55423;SDS011;41294;42.666;23.350;2022-07-29T14:15:24;8.02;;;5.10;;
55423;SDS011;41294;42.666;23.350;2022-07-29T14:17:49;5.35;;;4.63;;
55423;SDS011;41294;42.666;23.350;2022-07-29T14:20:15;6.30;;;4.43;;
55423;SDS011;41294;42.666;23.350;2022-07-29T14:22:41;5.75;;;4.97;;
55423;SDS011;41294;42.666;23.350;2022-07-29T14:25:07;5.18;;;4.65;;
55423;SDS011;41294;42.666;23.350;2022-07-29T14:27:33;5.13;;;4.63;;
55423;SDS011;41294;42.666;23.350;2022-07-29T14:29:58;5.47;;;4.85;;
55423;SDS011;41294;42.666;23.350;2022-07-29T14:32:24;4.80;;;4.40;;
55423;SDS011;41294;42.666;23.350;2022-07-29T14:34:49;5.50;;;5.10;;
55423;SDS011;41294;42.666;23.350;2022-07-29T14:37:14;4.82;;;4.32;;
55423;SDS011;41294;42.666;23.350;2022-07-29T14:39:40;4.35;;;4.05;;
55423;SDS011;41294;42.666;23.350;2022-07-29T14:42:06;6.28;;;4.45;;
55423;SDS011;41294;42.666;23.350;2022-07-29T14:44:32;4.45;;;4.05;;
55423;SDS011;41294;42.666;23.350;2022-07-29T14:46:58;4.78;;;4.28;;
55423;SDS011;41294;42.666;23.350;2022-07-29T14:49:25;4.85;;;4.35;;
55423;SDS011;41294;42.666;23.350;2022-07-29T14:51:53;4.95;;;4.55;;
55423;SDS011;41294;42.666;23.350;2022-07-29T14:54:19;5.40;;;4.90;;
55423;SDS011;41294;42.666;23.350;2022-07-29T14:56:44;4.90;;;4.50;;
55423;SDS011;41294;42.666;23.350;2022-07-29T14:59:10;8.35;;;5.22;;
55423;SDS011;41294;42.666;23.350;2022-07-29T15:01:35;4.93;;;4.45;;
55423;SDS011;41294;42.666;23.350;2022-07-29T15:04:01;4.95;;;4.65;;
55423;SDS011;41294;42.666;23.350;2022-07-29T15:06:27;5.25;;;4.50;;
55423;SDS011;41294;42.666;23.350;2022-07-29T15:08:52;5.95;;;4.75;;
55423;SDS011;41294;42.666;23.350;2022-07-29T15:11:18;5.07;;;4.57;;
55423;SDS011;41294;42.666;23.350;2022-07-29T15:13:44;5.60;;;4.85;;
55423;SDS011;41294;42.666;23.350;2022-07-29T15:16:09;5.00;;;4.50;;
55423;SDS011;41294;42.666;23.350;2022-07-29T15:18:35;4.60;;;4.20;;
55423;SDS011;41294;42.666;23.350;2022-07-29T15:21:03;5.20;;;4.60;;
55423;SDS011;41294;42.666;23.350;2022-07-29T15:23:28;5.40;;;4.90;;